createdAt,value
2022-11-24T00:01:18.383Z,8.30
2022-11-24T00:03:49.668Z,8.30
2022-11-24T00:06:17.633Z,8.40
2022-11-24T00:08:47.457Z,8.30
2022-11-24T00:11:17.040Z,8.30
2022-11-24T00:13:45.785Z,8.30
2022-11-24T00:16:17.609Z,8.30
2022-11-24T00:18:47.165Z,8.30
2022-11-24T00:21:16.329Z,8.30
2022-11-24T00:23:44.401Z,8.30
2022-11-24T00:26:14.626Z,8.30
2022-11-24T00:28:44.066Z,8.30
2022-11-24T00:31:21.430Z,8.40
2022-11-24T00:33:50.964Z,8.40
2022-11-24T00:36:20.467Z,8.40
2022-11-24T00:38:49.244Z,8.40
2022-11-24T00:41:17.183Z,8.50
2022-11-24T00:43:45.153Z,8.40
2022-11-24T00:46:13.186Z,8.50
2022-11-24T00:48:42.637Z,8.50
2022-11-24T00:51:13.600Z,8.50
2022-11-24T00:53:42.055Z,8.50
2022-11-24T00:56:11.401Z,8.50
2022-11-24T00:58:39.722Z,8.50
2022-11-24T01:01:09.922Z,8.50
2022-11-24T01:03:38.176Z,8.50
2022-11-24T01:06:09.431Z,8.50
2022-11-24T01:08:38.205Z,8.50
2022-11-24T01:11:10.996Z,8.40
2022-11-24T01:13:39.635Z,8.40
2022-11-24T01:16:13.727Z,8.40
2022-11-24T01:18:41.761Z,8.40
2022-11-24T01:21:11.097Z,8.40
2022-11-24T01:23:39.077Z,8.30
2022-11-24T01:26:07.983Z,8.40
2022-11-24T01:28:36.582Z,8.40
2022-11-24T01:31:08.026Z,8.40
2022-11-24T01:33:36.955Z,8.40
2022-11-24T01:36:06.464Z,8.40
2022-11-24T01:38:35.784Z,8.50
2022-11-24T01:41:05.642Z,8.50
2022-11-24T01:43:33.711Z,8.50
2022-11-24T01:46:12.099Z,8.50
2022-11-24T01:48:43.652Z,8.50
2022-11-24T01:51:15.954Z,8.50
2022-11-24T01:53:50.148Z,8.40
2022-11-24T01:56:18.245Z,8.40
2022-11-24T01:58:49.431Z,8.40
2022-11-24T02:01:17.669Z,8.50
2022-11-24T02:03:47.864Z,8.50
2022-11-24T02:06:20.508Z,8.60
2022-11-24T02:08:56.337Z,8.60
2022-11-24T02:11:27.490Z,8.60
2022-11-24T02:13:56.090Z,8.70
2022-11-24T02:16:24.284Z,8.60
2022-11-24T02:18:52.827Z,8.70
2022-11-24T02:21:21.014Z,8.70
2022-11-24T02:23:58.433Z,8.70
2022-11-24T02:26:49.516Z,8.70
2022-11-24T02:29:17.601Z,8.70
2022-11-24T02:31:50.061Z,8.80
2022-11-24T02:34:18.042Z,8.80
2022-11-24T02:36:45.992Z,8.80
2022-11-24T02:39:14.639Z,8.90
2022-11-24T02:41:47.198Z,9.00
2022-11-24T02:44:19.070Z,9.00
2022-11-24T02:46:47.063Z,9.00
2022-11-24T02:49:16.128Z,9.00
2022-11-24T02:51:44.053Z,9.00
2022-11-24T02:54:12.008Z,9.00
2022-11-24T02:56:39.969Z,9.00
2022-11-24T02:59:07.993Z,8.90
2022-11-24T03:01:37.331Z,8.90
2022-11-24T03:04:05.598Z,8.90
2022-11-24T03:06:33.551Z,8.90
2022-11-24T03:09:01.637Z,8.80
2022-11-24T03:11:29.683Z,8.80
2022-11-24T03:13:57.714Z,8.80
2022-11-24T03:16:25.791Z,8.80
2022-11-24T03:18:55.197Z,8.80
2022-11-24T03:21:23.157Z,8.80
2022-11-24T03:23:51.141Z,8.80
2022-11-24T03:26:21.618Z,8.80
2022-11-24T03:28:49.829Z,8.90
2022-11-24T03:31:17.844Z,8.90
2022-11-24T03:33:45.796Z,8.80
2022-11-24T03:36:15.178Z,8.80
2022-11-24T03:38:43.152Z,8.80
2022-11-24T03:41:11.807Z,8.80
2022-11-24T03:43:43.793Z,8.90
2022-11-24T03:46:13.126Z,8.90
2022-11-24T03:48:41.388Z,9.00
2022-11-24T03:51:09.404Z,8.90
2022-11-24T03:53:38.722Z,9.00
2022-11-24T03:56:07.288Z,8.90
2022-11-24T03:58:35.565Z,8.90
2022-11-24T04:01:03.789Z,8.90
2022-11-24T04:03:31.795Z,8.90
2022-11-24T04:05:59.759Z,8.90
2022-11-24T04:08:27.754Z,8.90
2022-11-24T04:10:57.169Z,8.90
2022-11-24T04:13:25.465Z,8.90
2022-11-24T04:15:53.985Z,8.90
2022-11-24T04:18:22.437Z,8.90
2022-11-24T04:20:50.927Z,8.90
2022-11-24T04:23:19.326Z,9.00
2022-11-24T04:25:47.300Z,9.00
2022-11-24T04:28:16.635Z,9.00
2022-11-24T04:30:45.405Z,9.00
2022-11-24T04:33:14.256Z,9.10
2022-11-24T04:35:42.301Z,9.10
2022-11-24T04:38:10.416Z,9.20
2022-11-24T04:40:39.140Z,9.10
2022-11-24T04:43:07.149Z,9.20
2022-11-24T04:45:36.489Z,9.20
2022-11-24T04:48:04.617Z,9.10
2022-11-24T04:50:32.647Z,9.20
2022-11-24T04:53:00.596Z,9.20
2022-11-24T04:55:28.615Z,9.30
2022-11-24T04:57:56.614Z,9.20
2022-11-24T05:00:24.676Z,9.30
2022-11-24T05:02:54.029Z,9.30
2022-11-24T05:05:22.074Z,9.30
2022-11-24T05:07:50.097Z,9.30
2022-11-24T05:10:36.286Z,9.30
2022-11-24T05:13:05.910Z,9.30
2022-11-24T05:15:34.390Z,9.30
2022-11-24T05:18:07.093Z,9.30
2022-11-24T05:20:35.381Z,9.30
2022-11-24T05:23:04.128Z,9.40
2022-11-24T05:25:32.957Z,9.40
2022-11-24T05:28:02.175Z,9.30
2022-11-24T05:30:30.737Z,9.40
2022-11-24T05:32:58.830Z,9.40
2022-11-24T05:35:28.171Z,9.40
2022-11-24T05:37:56.140Z,9.40
2022-11-24T05:40:24.133Z,9.40
2022-11-24T05:42:52.096Z,9.30
2022-11-24T05:45:21.923Z,9.30
2022-11-24T05:47:50.998Z,9.40
2022-11-24T05:50:21.084Z,9.40
2022-11-24T05:52:51.006Z,9.40
2022-11-24T05:55:20.466Z,9.40
2022-11-24T05:57:48.493Z,9.40
2022-11-24T06:00:19.944Z,9.40
2022-11-24T06:02:48.251Z,9.40
2022-11-24T06:05:16.529Z,9.40
2022-11-24T06:07:44.542Z,9.40
2022-11-24T06:10:13.898Z,9.40
2022-11-24T06:12:41.884Z,9.40
2022-11-24T06:15:11.191Z,9.50
2022-11-24T06:17:39.582Z,9.40
2022-11-24T06:20:09.363Z,9.50
2022-11-24T06:22:38.382Z,9.40
2022-11-24T06:25:07.098Z,9.50
2022-11-24T06:27:36.528Z,9.50
2022-11-24T06:30:04.913Z,9.40
2022-11-24T06:32:32.885Z,9.40
2022-11-24T06:35:00.880Z,9.50
2022-11-24T06:37:28.843Z,9.50
2022-11-24T06:39:56.831Z,9.50
2022-11-24T06:42:24.793Z,9.50
2022-11-24T06:44:54.201Z,9.60
2022-11-24T06:47:22.229Z,9.60
2022-11-24T06:49:50.198Z,9.60
2022-11-24T06:52:18.209Z,9.50
2022-11-24T06:54:46.191Z,9.50
2022-11-24T06:57:14.197Z,9.50
2022-11-24T06:59:42.221Z,9.50
2022-11-24T07:02:11.861Z,9.50
2022-11-24T07:04:39.846Z,9.40
2022-11-24T07:07:07.988Z,9.50
2022-11-24T07:09:36.049Z,9.50
2022-11-24T07:12:04.807Z,9.60
2022-11-24T07:14:33.732Z,9.60
2022-11-24T07:17:04.637Z,9.50
2022-11-24T07:19:34.056Z,9.50
2022-11-24T07:22:02.050Z,9.50
2022-11-24T07:24:30.021Z,9.40
2022-11-24T07:26:57.980Z,9.40
2022-11-24T07:29:26.028Z,9.30
2022-11-24T07:31:54.153Z,9.30
2022-11-24T07:34:22.164Z,9.20
2022-11-24T07:36:51.520Z,9.20
2022-11-24T07:39:19.438Z,9.20
2022-11-24T07:41:47.397Z,9.20
2022-11-24T07:44:15.533Z,9.30
2022-11-24T07:46:43.611Z,9.30
2022-11-24T07:49:11.611Z,9.30
2022-11-24T07:51:39.582Z,9.30
2022-11-24T07:54:09.053Z,9.30
2022-11-24T07:56:37.194Z,9.40
2022-11-24T07:59:05.359Z,9.40
2022-11-24T08:01:33.376Z,9.40
2022-11-24T08:04:02.901Z,9.40
2022-11-24T08:06:38.585Z,9.40
2022-11-24T08:09:10.179Z,9.50
2022-11-24T08:11:38.226Z,9.40
2022-11-24T08:14:06.597Z,9.50
2022-11-24T08:16:34.685Z,9.50
2022-11-24T08:19:02.843Z,9.50
2022-11-24T08:21:30.937Z,9.60
2022-11-24T08:23:59.363Z,9.60
2022-11-24T08:26:28.890Z,9.70
2022-11-24T08:28:58.347Z,9.70
2022-11-24T08:31:32.699Z,9.70
2022-11-24T08:34:02.048Z,9.70
2022-11-24T08:36:30.542Z,9.70
2022-11-24T08:39:00.095Z,9.80
2022-11-24T08:41:30.610Z,9.80
2022-11-24T08:43:58.987Z,9.80
2022-11-24T08:46:27.156Z,9.80
2022-11-24T08:48:56.054Z,9.90
2022-11-24T08:51:26.420Z,9.90
2022-11-24T08:53:56.587Z,9.90
2022-11-24T08:56:25.108Z,9.90
2022-11-24T08:58:54.772Z,9.90
2022-11-24T09:01:23.210Z,10.00
2022-11-24T09:03:52.160Z,10.00
2022-11-24T09:06:24.754Z,10.00
2022-11-24T09:08:53.256Z,10.10
2022-11-24T09:11:21.809Z,10.10
2022-11-24T09:13:49.995Z,10.10
2022-11-24T09:16:21.315Z,10.20
2022-11-24T09:18:55.454Z,10.20
2022-11-24T09:21:24.104Z,10.20
2022-11-24T09:23:53.813Z,10.20
2022-11-24T09:26:24.481Z,10.40
2022-11-24T09:28:55.071Z,10.40
2022-11-24T09:31:26.600Z,10.50
2022-11-24T09:33:55.264Z,10.60
2022-11-24T09:36:24.265Z,10.60
2022-11-24T09:38:52.350Z,10.60
2022-11-24T09:41:34.531Z,10.60
2022-11-24T09:44:10.119Z,10.60
2022-11-24T09:46:50.625Z,10.60
2022-11-24T09:49:25.482Z,10.70
2022-11-24T09:51:55.321Z,10.70
2022-11-24T09:54:27.344Z,10.70
2022-11-24T09:56:58.730Z,10.80
2022-11-24T09:59:27.509Z,10.80
2022-11-24T10:01:57.155Z,10.90
2022-11-24T10:04:29.277Z,10.90
2022-11-24T10:07:07.925Z,10.90
2022-11-24T10:09:51.697Z,10.90
2022-11-24T10:12:31.466Z,10.90
2022-11-24T10:15:32.236Z,10.90
2022-11-24T10:18:20.958Z,10.90
2022-11-24T10:20:58.620Z,10.90
2022-11-24T10:23:51.109Z,11.00
2022-11-24T10:26:21.175Z,11.00
2022-11-24T10:28:55.183Z,11.00
2022-11-24T10:31:33.404Z,11.00
2022-11-24T10:34:10.731Z,11.10
2022-11-24T10:36:45.051Z,11.10
2022-11-24T10:39:18.525Z,11.10
2022-11-24T10:41:53.045Z,11.10
2022-11-24T10:44:21.081Z,11.20
2022-11-24T10:46:49.383Z,11.20
2022-11-24T10:49:21.687Z,11.20
2022-11-24T10:52:01.362Z,11.30
2022-11-24T10:54:29.996Z,11.30
2022-11-24T10:56:58.794Z,11.40
2022-11-24T10:59:38.339Z,11.40
2022-11-24T11:02:29.152Z,11.40
2022-11-24T11:04:58.997Z,11.40
2022-11-24T11:07:28.253Z,11.50
2022-11-24T11:10:21.809Z,11.50
2022-11-24T11:12:50.117Z,11.50
2022-11-24T11:15:27.349Z,11.50
2022-11-24T11:17:59.184Z,11.50
2022-11-24T11:20:32.297Z,11.60
2022-11-24T11:23:03.186Z,11.60
2022-11-24T11:25:34.118Z,11.60
2022-11-24T11:28:27.717Z,11.70
2022-11-24T11:31:17.514Z,11.70
2022-11-24T11:34:08.347Z,11.80
2022-11-24T11:36:42.891Z,11.90
2022-11-24T11:39:24.199Z,11.90
2022-11-24T11:42:00.574Z,12.00
2022-11-24T11:44:37.866Z,12.20
2022-11-24T11:47:16.722Z,12.30
2022-11-24T11:49:46.028Z,12.30
2022-11-24T11:52:37.272Z,12.20
2022-11-24T11:55:20.795Z,12.20
2022-11-24T11:57:57.730Z,12.20
2022-11-24T12:00:25.730Z,12.20
2022-11-24T12:03:32.792Z,12.20
2022-11-24T12:06:15.269Z,12.20
2022-11-24T12:09:19.390Z,12.20
2022-11-24T12:11:46.957Z,12.30
2022-11-24T12:14:23.321Z,12.40
2022-11-24T12:17:02.233Z,12.40
2022-11-24T12:19:47.801Z,12.60
2022-11-24T12:22:25.398Z,12.70
2022-11-24T12:24:58.713Z,12.80
2022-11-24T12:27:39.664Z,12.90
2022-11-24T12:30:12.612Z,13.10
2022-11-24T12:33:18.073Z,13.20
2022-11-24T12:35:48.696Z,13.30
2022-11-24T12:38:33.575Z,13.20
2022-11-24T12:44:12.470Z,13.20
2022-11-24T12:46:50.534Z,13.20
2022-11-24T12:49:26.105Z,13.30
2022-11-24T12:51:59.539Z,13.30
2022-11-24T12:54:37.760Z,13.30
2022-11-24T12:57:14.980Z,13.40
2022-11-24T12:59:49.383Z,13.40
2022-11-24T13:02:25.720Z,13.40
2022-11-24T13:05:00.420Z,13.40
2022-11-24T13:07:40.878Z,13.30
2022-11-24T13:10:54.268Z,13.10
2022-11-24T13:13:27.692Z,13.00
2022-11-24T13:17:05.814Z,13.00
2022-11-24T13:19:08.677Z,13.00
2022-11-24T13:22:01.079Z,13.00
2022-11-24T13:24:31.878Z,12.90
2022-11-24T13:27:48.268Z,12.90
2022-11-24T13:30:50.712Z,12.80
2022-11-24T13:33:47.092Z,12.80
2022-11-24T13:36:31.709Z,12.70
2022-11-24T13:39:00.945Z,12.60
2022-11-24T13:42:43.633Z,12.70
2022-11-24T13:45:00.757Z,12.60
2022-11-24T13:47:34.663Z,12.70
2022-11-24T13:50:07.220Z,12.70
2022-11-24T13:52:50.076Z,12.70
2022-11-24T13:55:30.388Z,12.70
2022-11-24T13:58:06.130Z,12.60
2022-11-24T14:00:36.332Z,12.60
2022-11-24T14:03:14.153Z,12.60
2022-11-24T14:05:50.101Z,12.70
2022-11-24T14:08:22.420Z,12.70
2022-11-24T14:10:50.712Z,12.70
2022-11-24T14:13:29.342Z,12.60
2022-11-24T14:16:02.491Z,12.60
2022-11-24T14:18:31.410Z,12.60
2022-11-24T14:21:16.766Z,12.60
2022-11-24T14:23:46.700Z,12.50
2022-11-24T14:26:21.253Z,12.50
2022-11-24T14:28:50.264Z,12.40
2022-11-24T14:31:22.663Z,12.30
2022-11-24T14:33:51.622Z,12.30
2022-11-24T14:36:21.154Z,12.20
2022-11-24T14:38:49.335Z,12.20
2022-11-24T14:41:26.076Z,12.10
2022-11-24T14:44:06.966Z,12.10
2022-11-24T14:46:36.402Z,12.10
2022-11-24T14:49:05.595Z,12.00
2022-11-24T14:51:36.953Z,12.00
2022-11-24T14:54:07.788Z,12.00
2022-11-24T14:56:38.283Z,12.00
2022-11-24T14:59:22.308Z,11.90
2022-11-24T15:01:50.837Z,11.80
2022-11-24T15:04:46.198Z,11.80
2022-11-24T15:07:23.616Z,11.80
2022-11-24T15:09:54.435Z,11.70
2022-11-24T15:12:30.519Z,11.70
2022-11-24T15:15:01.339Z,11.70
2022-11-24T15:17:30.693Z,11.60
2022-11-24T15:20:02.004Z,11.50
2022-11-24T15:22:40.583Z,11.50
2022-11-24T15:25:39.176Z,11.50
2022-11-24T15:28:08.788Z,11.50
2022-11-24T15:30:38.139Z,11.50
2022-11-24T15:33:14.497Z,11.40
2022-11-24T15:35:42.656Z,11.40
2022-11-24T15:38:12.298Z,11.40
2022-11-24T15:40:41.636Z,11.40
2022-11-24T15:43:20.263Z,11.40
2022-11-24T15:45:48.368Z,11.30
2022-11-24T15:48:18.192Z,11.30
2022-11-24T15:50:46.643Z,11.20
2022-11-24T15:53:20.539Z,11.20
2022-11-24T15:55:49.381Z,11.10
2022-11-24T15:58:17.849Z,11.10
2022-11-24T16:00:46.599Z,11.10
2022-11-24T16:03:45.288Z,11.10
2022-11-24T16:06:03.005Z,11.10
2022-11-24T16:08:32.591Z,11.10
2022-11-24T16:11:00.600Z,11.00
2022-11-24T16:13:28.839Z,10.90
2022-11-24T16:15:56.938Z,10.90
2022-11-24T16:18:24.948Z,10.90
2022-11-24T16:20:53.019Z,10.90
2022-11-24T16:23:21.401Z,10.90
2022-11-24T16:25:50.771Z,10.90
2022-11-24T16:28:20.189Z,10.80
2022-11-24T16:30:50.621Z,10.80
2022-11-24T16:33:18.736Z,10.80
2022-11-24T16:35:48.484Z,10.70
2022-11-24T16:38:17.429Z,10.70
2022-11-24T16:40:45.544Z,10.70
2022-11-24T16:43:15.131Z,10.70
2022-11-24T16:45:45.571Z,10.60
2022-11-24T16:48:13.956Z,10.60
2022-11-24T16:50:42.132Z,10.60
2022-11-24T16:53:10.165Z,10.60
2022-11-24T16:55:38.262Z,10.60
2022-11-24T16:58:06.292Z,10.60
2022-11-24T17:00:35.982Z,10.60
2022-11-24T17:03:04.093Z,10.50
2022-11-24T17:05:32.117Z,10.50
2022-11-24T17:08:00.329Z,10.50
2022-11-24T17:10:28.563Z,10.50
2022-11-24T17:12:56.749Z,10.50
2022-11-24T17:15:33.450Z,10.40
2022-11-24T17:20:53.508Z,10.40
2022-11-24T17:23:21.624Z,10.40
2022-11-24T17:25:49.696Z,10.40
2022-11-24T17:28:18.046Z,10.40
2022-11-24T17:30:46.141Z,10.40
2022-11-24T17:33:15.556Z,10.30
2022-11-24T17:35:43.525Z,10.30
2022-11-24T17:38:11.809Z,10.30
2022-11-24T17:40:39.913Z,10.30
2022-11-24T17:43:17.199Z,10.30
2022-11-24T17:45:54.737Z,10.30
2022-11-24T17:48:24.751Z,10.30
2022-11-24T17:51:00.435Z,10.30
2022-11-24T17:53:28.604Z,10.30
2022-11-24T17:56:00.110Z,10.20
2022-11-24T17:58:29.229Z,10.20
2022-11-24T18:01:07.722Z,10.20
2022-11-24T18:03:37.354Z,10.20
2022-11-24T18:06:06.772Z,10.20
2022-11-24T18:08:35.105Z,10.10
2022-11-24T18:11:07.911Z,10.10
2022-11-24T18:16:28.074Z,10.00
2022-11-24T18:19:16.349Z,10.00
2022-11-24T18:21:50.223Z,10.00
2022-11-24T18:24:23.952Z,10.00
2022-11-24T18:26:52.616Z,10.00
2022-11-24T18:29:20.929Z,10.00
2022-11-24T18:31:49.476Z,10.00
2022-11-24T18:34:21.991Z,9.90
2022-11-24T18:36:52.343Z,10.00
2022-11-24T18:39:26.016Z,9.90
2022-11-24T18:41:54.226Z,10.00
2022-11-24T18:44:22.661Z,10.00
2022-11-24T18:46:51.165Z,9.90
2022-11-24T18:49:23.987Z,9.80
2022-11-24T18:51:52.718Z,9.80
2022-11-24T18:54:21.031Z,9.80
2022-11-24T18:56:49.554Z,9.70
2022-11-24T18:59:17.841Z,9.70
2022-11-24T19:01:47.162Z,9.70
2022-11-24T19:04:15.528Z,9.70
2022-11-24T19:06:45.392Z,9.70
2022-11-24T19:09:16.644Z,9.60
2022-11-24T19:11:46.170Z,9.60
2022-11-24T19:14:16.255Z,9.50
2022-11-24T19:16:46.346Z,9.50
2022-11-24T19:19:17.859Z,9.50
2022-11-24T19:21:47.320Z,9.40
2022-11-24T19:24:15.669Z,9.40
2022-11-24T19:26:44.192Z,9.40
2022-11-24T19:29:12.975Z,9.40
2022-11-24T19:31:43.772Z,9.40
2022-11-24T19:34:12.541Z,9.30
2022-11-24T19:36:43.121Z,9.40
2022-11-24T19:39:18.363Z,9.40
2022-11-24T19:41:49.631Z,9.30
2022-11-24T19:44:18.102Z,9.30
2022-11-24T19:46:46.548Z,9.30
2022-11-24T19:49:17.153Z,9.20
2022-11-24T19:51:47.045Z,9.20
2022-11-24T19:54:17.077Z,9.10
2022-11-24T19:56:45.166Z,9.10
2022-11-24T19:59:14.900Z,9.10
2022-11-24T20:01:43.600Z,9.00
2022-11-24T20:04:13.679Z,9.00
2022-11-24T20:06:43.875Z,8.90
2022-11-24T20:09:13.971Z,8.90
2022-11-24T20:11:43.714Z,8.90
2022-11-24T20:14:13.605Z,8.80
2022-11-24T20:16:42.564Z,8.90
2022-11-24T20:19:12.909Z,8.90
2022-11-24T20:21:45.953Z,8.90
2022-11-24T20:24:16.541Z,8.80
2022-11-24T20:26:47.760Z,8.70
2022-11-24T20:29:16.409Z,8.70
2022-11-24T20:31:46.583Z,8.70
2022-11-24T20:34:15.117Z,8.60
2022-11-24T20:36:45.301Z,8.60
2022-11-24T20:39:16.742Z,8.70
2022-11-24T20:41:46.383Z,8.60
2022-11-24T20:44:17.854Z,8.60
2022-11-24T20:46:50.152Z,8.60
2022-11-24T20:49:20.438Z,8.60
2022-11-24T20:51:48.588Z,8.60
2022-11-24T20:54:20.266Z,8.50
2022-11-24T20:56:49.643Z,8.50
2022-11-24T20:59:19.443Z,8.50
2022-11-24T21:01:48.661Z,8.50
2022-11-24T21:04:19.259Z,8.40
2022-11-24T21:06:47.826Z,8.40
2022-11-24T21:09:16.290Z,8.40
2022-11-24T21:11:44.463Z,8.40
2022-11-24T21:14:14.050Z,8.40
2022-11-24T21:16:43.544Z,8.40
2022-11-24T21:19:14.599Z,8.30
2022-11-24T21:21:43.414Z,8.30
2022-11-24T21:24:13.694Z,8.30
2022-11-24T21:26:42.617Z,8.30
2022-11-24T21:29:15.088Z,8.30
2022-11-24T21:31:43.245Z,8.30
2022-11-24T21:34:14.874Z,8.30
2022-11-24T21:36:44.903Z,8.40
2022-11-24T21:39:14.006Z,8.40
2022-11-24T21:41:43.156Z,8.40
2022-11-24T21:44:12.757Z,8.40
2022-11-24T21:46:48.049Z,8.40
2022-11-24T21:49:19.033Z,8.40
2022-11-24T21:51:47.519Z,8.40
2022-11-24T21:54:15.524Z,8.40
2022-11-24T21:56:45.979Z,8.40
2022-11-24T21:59:15.194Z,8.30
2022-11-24T22:01:44.659Z,8.40
2022-11-24T22:04:12.733Z,8.30
2022-11-24T22:06:40.802Z,8.30
2022-11-24T22:09:10.500Z,8.30
2022-11-24T22:11:41.660Z,8.30
2022-11-24T22:14:10.659Z,8.30
2022-11-24T22:16:39.034Z,8.30
2022-11-24T22:19:08.800Z,8.30
2022-11-24T22:21:37.527Z,8.30
2022-11-24T22:24:05.851Z,8.40
2022-11-24T22:26:33.879Z,8.40
2022-11-24T22:29:01.909Z,8.40
2022-11-24T22:31:31.813Z,8.40
2022-11-24T22:34:01.000Z,8.40
2022-11-24T22:36:31.402Z,8.50
2022-11-24T22:39:02.985Z,8.50
2022-11-24T22:41:32.075Z,8.50
2022-11-24T22:44:00.166Z,8.60
2022-11-24T22:46:30.274Z,8.50
2022-11-24T22:49:00.556Z,8.60
2022-11-24T22:51:31.305Z,8.60
2022-11-24T22:54:01.527Z,8.60
2022-11-24T22:56:32.226Z,8.60
2022-11-24T22:59:01.037Z,8.60
2022-11-24T23:01:30.505Z,8.60
2022-11-24T23:03:58.575Z,8.50
2022-11-24T23:06:28.083Z,8.60
2022-11-24T23:08:59.074Z,8.60
2022-11-24T23:11:34.897Z,8.60
2022-11-24T23:14:06.446Z,8.60
2022-11-24T23:16:34.593Z,8.70
2022-11-24T23:19:02.780Z,8.60
2022-11-24T23:21:32.620Z,8.60
2022-11-24T23:24:04.227Z,8.60
2022-11-24T23:26:34.220Z,8.70
2022-11-24T23:29:02.488Z,8.70
2022-11-24T23:31:31.100Z,8.70
2022-11-24T23:34:00.778Z,8.70
2022-11-24T23:36:30.016Z,8.70
2022-11-24T23:39:01.885Z,8.70
2022-11-24T23:41:32.038Z,8.70
2022-11-24T23:44:00.169Z,8.60
2022-11-24T23:46:29.340Z,8.70
2022-11-24T23:48:58.084Z,8.60
2022-11-24T23:51:27.877Z,8.60
2022-11-24T23:53:56.871Z,8.60
2022-11-24T23:56:26.698Z,8.70
2022-11-24T23:58:56.114Z,8.60
